Terminal Aerodrome Forecast
Issued by NWS

Home | Current Version | Previous Version | Text Only | Print | Product List | Glossary On
Versions: 1 2 3 4 5 6 7 8 9 10 11
910
FTUS45 KMSO 271135
TAFSMN
TAF
KSMN 271135Z 2712/2812 36006KT P6SM BKN100
     FM272000 35009KT P6SM VCSH BKN070
     FM280200 01007KT P6SM BKN100
      AMD LTD TO CLD VIS AND WIND=

USA.gov is the U.S. government's official web portal to all federal, state and local government web resources and services.